sensor_id;sensor_type;location;lat;lon;timestamp;temperature;humidity
64689;DHT22;62504;46.070;14.492;2022-12-18T00:01:34;3.10;99.90
64689;DHT22;62504;46.070;14.492;2022-12-18T00:04:01;3.00;99.90
64689;DHT22;62504;46.070;14.492;2022-12-18T00:06:28;3.00;99.90
64689;DHT22;62504;46.070;14.492;2022-12-18T00:08:56;3.10;99.90
64689;DHT22;62504;46.070;14.492;2022-12-18T00:11:24;3.20;99.90
64689;DHT22;62504;46.070;14.492;2022-12-18T00:13:50;3.20;99.90
64689;DHT22;62504;46.070;14.492;2022-12-18T00:16:18;3.20;99.90
64689;DHT22;62504;46.070;14.492;2022-12-18T00:18:46;3.20;99.90
64689;DHT22;62504;46.070;14.492;2022-12-18T00:21:13;3.20;99.90
64689;DHT22;62504;46.070;14.492;2022-12-18T00:23:40;3.20;99.90
64689;DHT22;62504;46.070;14.492;2022-12-18T00:26:10;3.20;99.90
64689;DHT22;62504;46.070;14.492;2022-12-18T00:28:36;3.20;99.90
64689;DHT22;62504;46.070;14.492;2022-12-18T00:31:13;3.20;99.90
64689;DHT22;62504;46.070;14.492;2022-12-18T00:33:39;3.40;99.90
64689;DHT22;62504;46.070;14.492;2022-12-18T00:36:12;3.40;99.90
64689;DHT22;62504;46.070;14.492;2022-12-18T00:38:38;3.30;99.90
64689;DHT22;62504;46.070;14.492;2022-12-18T00:41:05;3.30;99.90
64689;DHT22;62504;46.070;14.492;2022-12-18T00:43:31;3.30;99.90
64689;DHT22;62504;46.070;14.492;2022-12-18T00:45:57;3.40;99.90
64689;DHT22;62504;46.070;14.492;2022-12-18T00:48:23;3.40;99.90
64689;DHT22;62504;46.070;14.492;2022-12-18T00:50:49;3.50;99.90
64689;DHT22;62504;46.070;14.492;2022-12-18T00:53:15;3.50;99.90
64689;DHT22;62504;46.070;14.492;2022-12-18T00:55:41;3.40;99.90
64689;DHT22;62504;46.070;14.492;2022-12-18T00:58:08;3.30;99.90
64689;DHT22;62504;46.070;14.492;2022-12-18T01:00:34;3.20;99.90
64689;DHT22;62504;46.070;14.492;2022-12-18T01:03:00;3.20;99.90
64689;DHT22;62504;46.070;14.492;2022-12-18T01:05:26;3.20;99.90
64689;DHT22;62504;46.070;14.492;2022-12-18T01:07:51;3.20;99.90
64689;DHT22;62504;46.070;14.492;2022-12-18T01:10:17;3.10;99.90
64689;DHT22;62504;46.070;14.492;2022-12-18T01:12:43;3.10;99.90
64689;DHT22;62504;46.070;14.492;2022-12-18T01:15:09;3.00;99.90
64689;DHT22;62504;46.070;14.492;2022-12-18T01:17:35;2.90;99.90
64689;DHT22;62504;46.070;14.492;2022-12-18T01:20:01;2.90;99.90
64689;DHT22;62504;46.070;14.492;2022-12-18T01:22:26;3.00;99.90
64689;DHT22;62504;46.070;14.492;2022-12-18T01:24:52;3.00;99.90
64689;DHT22;62504;46.070;14.492;2022-12-18T01:27:17;3.00;99.90
64689;DHT22;62504;46.070;14.492;2022-12-18T01:29:43;3.00;99.90
64689;DHT22;62504;46.070;14.492;2022-12-18T01:32:09;2.90;99.90
64689;DHT22;62504;46.070;14.492;2022-12-18T01:34:37;2.70;99.90
64689;DHT22;62504;46.070;14.492;2022-12-18T01:37:04;2.70;99.90
64689;DHT22;62504;46.070;14.492;2022-12-18T01:39:30;2.60;99.90
64689;DHT22;62504;46.070;14.492;2022-12-18T01:41:58;2.70;99.90
64689;DHT22;62504;46.070;14.492;2022-12-18T01:49:59;2.80;99.90
64689;DHT22;62504;46.070;14.492;2022-12-18T01:52:28;2.80;99.90
64689;DHT22;62504;46.070;14.492;2022-12-18T01:54:55;2.80;99.90
64689;DHT22;62504;46.070;14.492;2022-12-18T01:57:21;2.80;99.90
64689;DHT22;62504;46.070;14.492;2022-12-18T01:59:50;2.80;99.90
64689;DHT22;62504;46.070;14.492;2022-12-18T02:02:18;2.80;99.90
64689;DHT22;62504;46.070;14.492;2022-12-18T02:04:44;2.80;99.90
64689;DHT22;62504;46.070;14.492;2022-12-18T02:07:47;2.80;99.90
64689;DHT22;62504;46.070;14.492;2022-12-18T02:13:12;2.90;99.90
64689;DHT22;62504;46.070;14.492;2022-12-18T02:15:48;2.90;99.90
64689;DHT22;62504;46.070;14.492;2022-12-18T02:18:24;2.80;99.90
64689;DHT22;62504;46.070;14.492;2022-12-18T02:26:26;2.90;99.90
64689;DHT22;62504;46.070;14.492;2022-12-18T02:28:54;2.90;99.90
64689;DHT22;62504;46.070;14.492;2022-12-18T02:31:25;3.00;99.90
64689;DHT22;62504;46.070;14.492;2022-12-18T02:33:58;3.00;99.90
64689;DHT22;62504;46.070;14.492;2022-12-18T02:36:25;2.90;99.90
64689;DHT22;62504;46.070;14.492;2022-12-18T02:38:53;2.80;99.90
64689;DHT22;62504;46.070;14.492;2022-12-18T02:41:20;2.70;99.90
64689;DHT22;62504;46.070;14.492;2022-12-18T02:43:48;2.70;99.90
64689;DHT22;62504;46.070;14.492;2022-12-18T02:46:31;2.80;99.90
64689;DHT22;62504;46.070;14.492;2022-12-18T02:49:09;2.70;99.90
64689;DHT22;62504;46.070;14.492;2022-12-18T02:54:36;2.70;99.90
64689;DHT22;62504;46.070;14.492;2022-12-18T03:02:39;2.70;99.90
64689;DHT22;62504;46.070;14.492;2022-12-18T03:05:22;2.70;99.90
64689;DHT22;62504;46.070;14.492;2022-12-18T03:07:57;2.70;99.90
64689;DHT22;62504;46.070;14.492;2022-12-18T03:10:27;2.60;99.90
64689;DHT22;62504;46.070;14.492;2022-12-18T03:13:24;2.60;99.90
64689;DHT22;62504;46.070;14.492;2022-12-18T03:15:56;2.60;99.90
64689;DHT22;62504;46.070;14.492;2022-12-18T03:18:47;2.70;99.90
64689;DHT22;62504;46.070;14.492;2022-12-18T03:21:14;2.60;99.90
64689;DHT22;62504;46.070;14.492;2022-12-18T03:23:44;2.60;99.90
64689;DHT22;62504;46.070;14.492;2022-12-18T03:26:14;2.60;99.90
64689;DHT22;62504;46.070;14.492;2022-12-18T03:28:46;2.70;99.90
64689;DHT22;62504;46.070;14.492;2022-12-18T03:31:14;2.80;99.90
64689;DHT22;62504;46.070;14.492;2022-12-18T03:36:06;2.60;99.90
64689;DHT22;62504;46.070;14.492;2022-12-18T03:38:32;2.50;99.90
64689;DHT22;62504;46.070;14.492;2022-12-18T03:41:19;2.40;99.90
64689;DHT22;62504;46.070;14.492;2022-12-18T03:44:14;2.30;99.90
64689;DHT22;62504;46.070;14.492;2022-12-18T03:52:09;2.20;99.90
64689;DHT22;62504;46.070;14.492;2022-12-18T03:54:37;2.30;99.90
64689;DHT22;62504;46.070;14.492;2022-12-18T03:57:11;2.10;99.90
64689;DHT22;62504;46.070;14.492;2022-12-18T03:59:40;2.00;99.90
64689;DHT22;62504;46.070;14.492;2022-12-18T04:02:07;2.00;99.90
64689;DHT22;62504;46.070;14.492;2022-12-18T04:04:34;2.00;99.90
64689;DHT22;62504;46.070;14.492;2022-12-18T04:07:01;2.00;99.90
64689;DHT22;62504;46.070;14.492;2022-12-18T04:09:27;2.00;99.90
64689;DHT22;62504;46.070;14.492;2022-12-18T04:11:53;2.00;99.90
64689;DHT22;62504;46.070;14.492;2022-12-18T04:14:19;2.00;99.90
64689;DHT22;62504;46.070;14.492;2022-12-18T04:16:45;2.00;99.90
64689;DHT22;62504;46.070;14.492;2022-12-18T04:19:11;2.00;99.90
64689;DHT22;62504;46.070;14.492;2022-12-18T04:21:36;1.70;99.90
64689;DHT22;62504;46.070;14.492;2022-12-18T04:24:02;1.60;99.90
64689;DHT22;62504;46.070;14.492;2022-12-18T04:26:28;1.60;99.90
64689;DHT22;62504;46.070;14.492;2022-12-18T04:28:53;1.60;99.90
64689;DHT22;62504;46.070;14.492;2022-12-18T04:31:19;1.60;99.90
64689;DHT22;62504;46.070;14.492;2022-12-18T04:33:44;1.80;99.90
64689;DHT22;62504;46.070;14.492;2022-12-18T04:36:10;1.90;99.90
64689;DHT22;62504;46.070;14.492;2022-12-18T04:38:38;1.80;99.90
64689;DHT22;62504;46.070;14.492;2022-12-18T04:41:03;1.80;99.90
64689;DHT22;62504;46.070;14.492;2022-12-18T04:43:29;1.80;99.90
64689;DHT22;62504;46.070;14.492;2022-12-18T04:46:07;1.90;99.90
64689;DHT22;62504;46.070;14.492;2022-12-18T04:48:33;1.70;99.90
64689;DHT22;62504;46.070;14.492;2022-12-18T04:50:59;1.80;99.90
64689;DHT22;62504;46.070;14.492;2022-12-18T04:53:24;1.80;99.90
64689;DHT22;62504;46.070;14.492;2022-12-18T04:55:50;1.90;99.90
64689;DHT22;62504;46.070;14.492;2022-12-18T04:58:16;1.90;99.90
64689;DHT22;62504;46.070;14.492;2022-12-18T05:00:41;1.80;99.90
64689;DHT22;62504;46.070;14.492;2022-12-18T05:03:07;1.80;99.90
64689;DHT22;62504;46.070;14.492;2022-12-18T05:05:34;1.90;99.90
64689;DHT22;62504;46.070;14.492;2022-12-18T05:08:00;1.90;99.90
64689;DHT22;62504;46.070;14.492;2022-12-18T05:10:26;1.70;99.90
64689;DHT22;62504;46.070;14.492;2022-12-18T05:12:51;1.50;99.90
64689;DHT22;62504;46.070;14.492;2022-12-18T05:15:31;1.50;99.90
64689;DHT22;62504;46.070;14.492;2022-12-18T05:17:57;1.60;99.90
64689;DHT22;62504;46.070;14.492;2022-12-18T05:20:24;1.90;99.90
64689;DHT22;62504;46.070;14.492;2022-12-18T05:22:50;2.00;99.90
64689;DHT22;62504;46.070;14.492;2022-12-18T05:25:16;1.70;99.90
64689;DHT22;62504;46.070;14.492;2022-12-18T05:27:42;1.70;99.90
64689;DHT22;62504;46.070;14.492;2022-12-18T05:30:08;1.60;99.90
64689;DHT22;62504;46.070;14.492;2022-12-18T05:32:34;1.50;99.90
64689;DHT22;62504;46.070;14.492;2022-12-18T05:35:00;1.60;99.90
64689;DHT22;62504;46.070;14.492;2022-12-18T05:37:25;1.80;99.90
64689;DHT22;62504;46.070;14.492;2022-12-18T05:39:51;1.50;99.90
64689;DHT22;62504;46.070;14.492;2022-12-18T05:42:17;1.70;99.90
64689;DHT22;62504;46.070;14.492;2022-12-18T05:44:43;1.70;99.90
64689;DHT22;62504;46.070;14.492;2022-12-18T05:47:09;1.70;99.90
64689;DHT22;62504;46.070;14.492;2022-12-18T05:49:34;1.60;99.90
64689;DHT22;62504;46.070;14.492;2022-12-18T05:52:00;1.60;99.90
64689;DHT22;62504;46.070;14.492;2022-12-18T05:54:29;1.70;99.90
64689;DHT22;62504;46.070;14.492;2022-12-18T05:56:55;1.80;99.90
64689;DHT22;62504;46.070;14.492;2022-12-18T05:59:20;1.90;99.90
64689;DHT22;62504;46.070;14.492;2022-12-18T06:01:46;1.90;99.90
64689;DHT22;62504;46.070;14.492;2022-12-18T06:04:12;1.90;99.90
64689;DHT22;62504;46.070;14.492;2022-12-18T06:06:38;2.00;99.90
64689;DHT22;62504;46.070;14.492;2022-12-18T06:09:03;1.90;99.90
64689;DHT22;62504;46.070;14.492;2022-12-18T06:11:38;2.00;99.90
64689;DHT22;62504;46.070;14.492;2022-12-18T06:14:05;1.90;99.90
64689;DHT22;62504;46.070;14.492;2022-12-18T06:16:31;1.80;99.90
64689;DHT22;62504;46.070;14.492;2022-12-18T06:19:02;1.60;99.90
64689;DHT22;62504;46.070;14.492;2022-12-18T06:21:28;1.80;99.90
64689;DHT22;62504;46.070;14.492;2022-12-18T06:23:54;1.80;99.90
64689;DHT22;62504;46.070;14.492;2022-12-18T06:26:20;1.70;99.90
64689;DHT22;62504;46.070;14.492;2022-12-18T06:28:46;1.60;99.90
64689;DHT22;62504;46.070;14.492;2022-12-18T06:31:11;1.80;99.90
64689;DHT22;62504;46.070;14.492;2022-12-18T06:33:38;1.90;99.90
64689;DHT22;62504;46.070;14.492;2022-12-18T06:36:09;1.80;99.90
64689;DHT22;62504;46.070;14.492;2022-12-18T06:38:37;1.90;99.90
64689;DHT22;62504;46.070;14.492;2022-12-18T06:41:14;1.60;99.90
64689;DHT22;62504;46.070;14.492;2022-12-18T06:43:40;1.40;99.90
64689;DHT22;62504;46.070;14.492;2022-12-18T06:46:05;1.50;99.90
64689;DHT22;62504;46.070;14.492;2022-12-18T06:48:32;1.60;99.90
64689;DHT22;62504;46.070;14.492;2022-12-18T06:50:58;1.70;99.90
64689;DHT22;62504;46.070;14.492;2022-12-18T06:53:23;1.70;99.90
64689;DHT22;62504;46.070;14.492;2022-12-18T06:55:49;1.70;99.90
64689;DHT22;62504;46.070;14.492;2022-12-18T06:58:15;1.70;99.90
64689;DHT22;62504;46.070;14.492;2022-12-18T07:00:41;1.60;99.90
64689;DHT22;62504;46.070;14.492;2022-12-18T07:03:07;1.70;99.90
64689;DHT22;62504;46.070;14.492;2022-12-18T07:05:32;1.80;99.90
64689;DHT22;62504;46.070;14.492;2022-12-18T07:07:58;1.70;99.90
64689;DHT22;62504;46.070;14.492;2022-12-18T07:10:24;1.70;99.90
64689;DHT22;62504;46.070;14.492;2022-12-18T07:12:50;1.70;99.90
64689;DHT22;62504;46.070;14.492;2022-12-18T07:15:15;1.70;99.90
64689;DHT22;62504;46.070;14.492;2022-12-18T07:17:41;1.70;99.90
64689;DHT22;62504;46.070;14.492;2022-12-18T07:20:07;1.80;99.90
64689;DHT22;62504;46.070;14.492;2022-12-18T07:22:33;1.80;99.90
64689;DHT22;62504;46.070;14.492;2022-12-18T07:24:58;1.90;99.90
64689;DHT22;62504;46.070;14.492;2022-12-18T07:27:24;1.80;99.90
64689;DHT22;62504;46.070;14.492;2022-12-18T07:29:49;1.80;99.90
64689;DHT22;62504;46.070;14.492;2022-12-18T07:32:15;1.80;99.90
64689;DHT22;62504;46.070;14.492;2022-12-18T07:34:41;1.90;99.90
64689;DHT22;62504;46.070;14.492;2022-12-18T07:37:06;1.70;99.90
64689;DHT22;62504;46.070;14.492;2022-12-18T07:39:32;1.80;99.90
64689;DHT22;62504;46.070;14.492;2022-12-18T07:41:58;1.90;99.90
64689;DHT22;62504;46.070;14.492;2022-12-18T07:44:42;2.10;99.90
64689;DHT22;62504;46.070;14.492;2022-12-18T07:47:07;2.10;99.90
64689;DHT22;62504;46.070;14.492;2022-12-18T07:49:33;2.10;99.90
64689;DHT22;62504;46.070;14.492;2022-12-18T07:51:59;2.00;99.90
64689;DHT22;62504;46.070;14.492;2022-12-18T07:54:25;2.10;99.90
64689;DHT22;62504;46.070;14.492;2022-12-18T07:56:51;2.10;99.90
64689;DHT22;62504;46.070;14.492;2022-12-18T07:59:17;2.20;99.90
64689;DHT22;62504;46.070;14.492;2022-12-18T08:01:43;2.20;99.90
64689;DHT22;62504;46.070;14.492;2022-12-18T08:04:09;2.20;99.90
64689;DHT22;62504;46.070;14.492;2022-12-18T08:06:34;2.20;99.90
64689;DHT22;62504;46.070;14.492;2022-12-18T08:09:00;2.40;99.90
64689;DHT22;62504;46.070;14.492;2022-12-18T08:11:27;2.30;99.90
64689;DHT22;62504;46.070;14.492;2022-12-18T08:13:54;2.50;99.90
64689;DHT22;62504;46.070;14.492;2022-12-18T08:16:20;2.50;99.90
64689;DHT22;62504;46.070;14.492;2022-12-18T08:18:47;2.70;99.90
64689;DHT22;62504;46.070;14.492;2022-12-18T08:21:24;2.70;99.90
64689;DHT22;62504;46.070;14.492;2022-12-18T08:23:51;2.80;99.90
64689;DHT22;62504;46.070;14.492;2022-12-18T08:26:18;2.80;99.90
64689;DHT22;62504;46.070;14.492;2022-12-18T08:28:44;2.60;99.90
64689;DHT22;62504;46.070;14.492;2022-12-18T08:31:10;2.70;99.90
64689;DHT22;62504;46.070;14.492;2022-12-18T08:33:36;3.00;99.90
64689;DHT22;62504;46.070;14.492;2022-12-18T08:36:03;3.60;99.90
64689;DHT22;62504;46.070;14.492;2022-12-18T08:38:29;3.80;99.90
64689;DHT22;62504;46.070;14.492;2022-12-18T08:40:59;4.10;99.90
64689;DHT22;62504;46.070;14.492;2022-12-18T08:43:25;4.60;99.90
64689;DHT22;62504;46.070;14.492;2022-12-18T08:46:10;4.80;99.90
64689;DHT22;62504;46.070;14.492;2022-12-18T08:48:36;5.20;99.90
64689;DHT22;62504;46.070;14.492;2022-12-18T08:51:01;4.70;99.90
64689;DHT22;62504;46.070;14.492;2022-12-18T08:53:27;4.80;99.90
64689;DHT22;62504;46.070;14.492;2022-12-18T08:55:53;5.00;99.90
64689;DHT22;62504;46.070;14.492;2022-12-18T08:58:19;6.60;99.90
64689;DHT22;62504;46.070;14.492;2022-12-18T09:00:45;7.90;99.90
64689;DHT22;62504;46.070;14.492;2022-12-18T09:03:15;8.80;99.90
64689;DHT22;62504;46.070;14.492;2022-12-18T09:05:41;8.90;99.90
64689;DHT22;62504;46.070;14.492;2022-12-18T09:08:07;8.90;99.90
64689;DHT22;62504;46.070;14.492;2022-12-18T09:10:33;9.30;99.90
64689;DHT22;62504;46.070;14.492;2022-12-18T09:12:58;8.80;99.90
64689;DHT22;62504;46.070;14.492;2022-12-18T09:15:24;7.50;99.90
64689;DHT22;62504;46.070;14.492;2022-12-18T09:17:50;7.40;99.90
64689;DHT22;62504;46.070;14.492;2022-12-18T09:20:18;7.20;99.90
64689;DHT22;62504;46.070;14.492;2022-12-18T09:22:47;6.30;99.90
64689;DHT22;62504;46.070;14.492;2022-12-18T09:25:12;6.50;99.90
64689;DHT22;62504;46.070;14.492;2022-12-18T09:27:38;6.80;99.90
64689;DHT22;62504;46.070;14.492;2022-12-18T09:30:05;7.00;99.90
64689;DHT22;62504;46.070;14.492;2022-12-18T09:32:31;7.60;99.90
64689;DHT22;62504;46.070;14.492;2022-12-18T09:34:56;7.10;99.90
64689;DHT22;62504;46.070;14.492;2022-12-18T09:37:22;6.70;99.90
64689;DHT22;62504;46.070;14.492;2022-12-18T09:39:47;7.00;99.90
64689;DHT22;62504;46.070;14.492;2022-12-18T09:42:20;7.30;99.90
64689;DHT22;62504;46.070;14.492;2022-12-18T09:44:50;7.10;99.90
64689;DHT22;62504;46.070;14.492;2022-12-18T09:47:24;7.10;99.90
64689;DHT22;62504;46.070;14.492;2022-12-18T09:50:01;7.10;99.90
64689;DHT22;62504;46.070;14.492;2022-12-18T09:52:33;6.20;99.90
64689;DHT22;62504;46.070;14.492;2022-12-18T09:57:40;5.70;99.90
64689;DHT22;62504;46.070;14.492;2022-12-18T10:00:22;5.80;99.90
64689;DHT22;62504;46.070;14.492;2022-12-18T10:02:49;5.70;99.90
64689;DHT22;62504;46.070;14.492;2022-12-18T10:05:24;5.30;99.90
64689;DHT22;62504;46.070;14.492;2022-12-18T10:08:38;5.30;99.90
64689;DHT22;62504;46.070;14.492;2022-12-18T10:11:27;5.70;99.90
64689;DHT22;62504;46.070;14.492;2022-12-18T10:14:07;5.30;99.90
64689;DHT22;62504;46.070;14.492;2022-12-18T10:16:43;4.70;99.90
64689;DHT22;62504;46.070;14.492;2022-12-18T10:22:32;5.20;99.90
64689;DHT22;62504;46.070;14.492;2022-12-18T10:27:30;5.20;99.90
64689;DHT22;62504;46.070;14.492;2022-12-18T10:29:57;4.90;99.90
64689;DHT22;62504;46.070;14.492;2022-12-18T10:32:25;5.30;99.90
64689;DHT22;62504;46.070;14.492;2022-12-18T10:34:54;5.30;99.90
64689;DHT22;62504;46.070;14.492;2022-12-18T10:37:23;4.80;99.90
64689;DHT22;62504;46.070;14.492;2022-12-18T10:40:19;5.30;99.90
64689;DHT22;62504;46.070;14.492;2022-12-18T10:42:44;5.30;99.90
64689;DHT22;62504;46.070;14.492;2022-12-18T10:47:45;4.60;99.90
64689;DHT22;62504;46.070;14.492;2022-12-18T10:50:33;4.60;99.90
64689;DHT22;62504;46.070;14.492;2022-12-18T10:53:01;4.50;99.90
64689;DHT22;62504;46.070;14.492;2022-12-18T10:55:32;4.70;99.90
64689;DHT22;62504;46.070;14.492;2022-12-18T11:01:09;4.50;99.90
64689;DHT22;62504;46.070;14.492;2022-12-18T11:06:22;4.70;99.90
64689;DHT22;62504;46.070;14.492;2022-12-18T11:09:04;4.70;99.90
64689;DHT22;62504;46.070;14.492;2022-12-18T11:11:31;4.50;99.90
64689;DHT22;62504;46.070;14.492;2022-12-18T11:16:23;4.30;99.90
64689;DHT22;62504;46.070;14.492;2022-12-18T11:18:49;4.30;99.90
64689;DHT22;62504;46.070;14.492;2022-12-18T11:21:15;4.30;99.90
64689;DHT22;62504;46.070;14.492;2022-12-18T11:23:49;4.30;99.90
64689;DHT22;62504;46.070;14.492;2022-12-18T11:26:16;4.50;99.90
64689;DHT22;62504;46.070;14.492;2022-12-18T11:28:52;4.30;99.90
64689;DHT22;62504;46.070;14.492;2022-12-18T11:31:25;4.40;99.90
64689;DHT22;62504;46.070;14.492;2022-12-18T11:34:13;4.30;99.90
64689;DHT22;62504;46.070;14.492;2022-12-18T11:36:45;4.00;99.90
64689;DHT22;62504;46.070;14.492;2022-12-18T11:42:00;4.20;99.90
64689;DHT22;62504;46.070;14.492;2022-12-18T11:49:37;4.10;99.90
64689;DHT22;62504;46.070;14.492;2022-12-18T11:54:38;4.10;99.90
64689;DHT22;62504;46.070;14.492;2022-12-18T11:57:29;4.00;99.90
64689;DHT22;62504;46.070;14.492;2022-12-18T12:00:15;3.80;99.90
64689;DHT22;62504;46.070;14.492;2022-12-18T12:18:56;3.80;99.90
64689;DHT22;62504;46.070;14.492;2022-12-18T12:21:40;3.80;99.90
64689;DHT22;62504;46.070;14.492;2022-12-18T12:27:50;3.70;99.90
64689;DHT22;62504;46.070;14.492;2022-12-18T12:40:28;3.60;99.90
64689;DHT22;62504;46.070;14.492;2022-12-18T12:43:03;3.60;99.90
64689;DHT22;62504;46.070;14.492;2022-12-18T12:45:55;3.40;99.90
64689;DHT22;62504;46.070;14.492;2022-12-18T12:48:45;3.40;99.90
64689;DHT22;62504;46.070;14.492;2022-12-18T12:51:20;3.40;99.90
64689;DHT22;62504;46.070;14.492;2022-12-18T12:53:48;3.50;99.90
64689;DHT22;62504;46.070;14.492;2022-12-18T12:56:16;3.50;99.90
64689;DHT22;62504;46.070;14.492;2022-12-18T13:01:41;3.40;99.90
64689;DHT22;62504;46.070;14.492;2022-12-18T13:04:29;3.70;99.90
64689;DHT22;62504;46.070;14.492;2022-12-18T13:07:05;3.60;99.90
64689;DHT22;62504;46.070;14.492;2022-12-18T13:09:32;3.40;99.90
64689;DHT22;62504;46.070;14.492;2022-12-18T13:12:03;3.50;99.90
64689;DHT22;62504;46.070;14.492;2022-12-18T13:15:22;3.60;99.90
64689;DHT22;62504;46.070;14.492;2022-12-18T13:17:48;3.60;99.90
64689;DHT22;62504;46.070;14.492;2022-12-18T13:20:15;3.40;99.90
64689;DHT22;62504;46.070;14.492;2022-12-18T13:22:50;3.50;99.90
64689;DHT22;62504;46.070;14.492;2022-12-18T13:38:23;3.30;99.90
64689;DHT22;62504;46.070;14.492;2022-12-18T13:41:26;3.50;99.90
64689;DHT22;62504;46.070;14.492;2022-12-18T13:43:54;3.40;99.90
64689;DHT22;62504;46.070;14.492;2022-12-18T13:51:54;3.50;99.90
64689;DHT22;62504;46.070;14.492;2022-12-18T13:54:36;3.40;99.90
64689;DHT22;62504;46.070;14.492;2022-12-18T13:57:03;3.40;99.90
64689;DHT22;62504;46.070;14.492;2022-12-18T13:59:38;3.10;99.90
64689;DHT22;62504;46.070;14.492;2022-12-18T14:02:15;3.20;99.90
64689;DHT22;62504;46.070;14.492;2022-12-18T14:04:44;3.10;99.90
64689;DHT22;62504;46.070;14.492;2022-12-18T14:07:22;3.30;99.90
64689;DHT22;62504;46.070;14.492;2022-12-18T14:09:55;3.10;99.90
64689;DHT22;62504;46.070;14.492;2022-12-18T14:12:25;3.30;99.90
64689;DHT22;62504;46.070;14.492;2022-12-18T14:15:39;3.30;99.90
64689;DHT22;62504;46.070;14.492;2022-12-18T14:20:47;3.30;99.90
64689;DHT22;62504;46.070;14.492;2022-12-18T14:23:36;3.10;99.90
64689;DHT22;62504;46.070;14.492;2022-12-18T14:26:17;3.10;99.90
64689;DHT22;62504;46.070;14.492;2022-12-18T14:28:45;3.10;99.90
64689;DHT22;62504;46.070;14.492;2022-12-18T14:31:19;3.30;99.90
64689;DHT22;62504;46.070;14.492;2022-12-18T14:33:45;3.30;99.90
64689;DHT22;62504;46.070;14.492;2022-12-18T14:36:17;3.30;99.90
64689;DHT22;62504;46.070;14.492;2022-12-18T14:38:49;3.20;99.90
64689;DHT22;62504;46.070;14.492;2022-12-18T14:41:16;3.10;99.90
64689;DHT22;62504;46.070;14.492;2022-12-18T14:43:45;3.10;99.90
64689;DHT22;62504;46.070;14.492;2022-12-18T14:48:59;3.40;99.90
64689;DHT22;62504;46.070;14.492;2022-12-18T14:51:27;3.40;99.90
64689;DHT22;62504;46.070;14.492;2022-12-18T14:54:05;3.30;99.90
64689;DHT22;62504;46.070;14.492;2022-12-18T14:56:43;3.20;99.90
64689;DHT22;62504;46.070;14.492;2022-12-18T14:59:21;3.20;99.90
64689;DHT22;62504;46.070;14.492;2022-12-18T15:04:37;3.30;99.90
64689;DHT22;62504;46.070;14.492;2022-12-18T15:10:20;3.10;99.90
64689;DHT22;62504;46.070;14.492;2022-12-18T15:18:13;3.30;99.90
64689;DHT22;62504;46.070;14.492;2022-12-18T15:23:18;3.20;99.90
64689;DHT22;62504;46.070;14.492;2022-12-18T15:25:45;3.20;99.90
64689;DHT22;62504;46.070;14.492;2022-12-18T15:36:23;3.10;99.90
64689;DHT22;62504;46.070;14.492;2022-12-18T15:38:50;3.10;99.90
64689;DHT22;62504;46.070;14.492;2022-12-18T15:41:18;2.80;99.90
64689;DHT22;62504;46.070;14.492;2022-12-18T15:43:45;2.90;99.90
64689;DHT22;62504;46.070;14.492;2022-12-18T15:46:13;2.90;99.90
64689;DHT22;62504;46.070;14.492;2022-12-18T15:48:42;3.00;99.90
64689;DHT22;62504;46.070;14.492;2022-12-18T15:53:52;3.10;99.90
64689;DHT22;62504;46.070;14.492;2022-12-18T15:56:19;3.00;99.90
64689;DHT22;62504;46.070;14.492;2022-12-18T15:59:15;3.00;99.90
64689;DHT22;62504;46.070;14.492;2022-12-18T16:01:42;3.00;99.90
64689;DHT22;62504;46.070;14.492;2022-12-18T16:04:12;3.00;99.90
64689;DHT22;62504;46.070;14.492;2022-12-18T16:06:39;3.00;99.90
64689;DHT22;62504;46.070;14.492;2022-12-18T16:09:04;2.90;99.90
64689;DHT22;62504;46.070;14.492;2022-12-18T16:11:32;2.90;99.90
64689;DHT22;62504;46.070;14.492;2022-12-18T16:14:25;3.00;99.90
64689;DHT22;62504;46.070;14.492;2022-12-18T16:17:03;3.00;99.90
64689;DHT22;62504;46.070;14.492;2022-12-18T16:19:30;3.20;99.90
64689;DHT22;62504;46.070;14.492;2022-12-18T16:21:58;3.20;99.90
64689;DHT22;62504;46.070;14.492;2022-12-18T16:24:26;3.00;99.90
64689;DHT22;62504;46.070;14.492;2022-12-18T16:26:52;3.00;99.90
64689;DHT22;62504;46.070;14.492;2022-12-18T16:29:19;2.90;99.90
64689;DHT22;62504;46.070;14.492;2022-12-18T16:31:50;2.90;99.90
64689;DHT22;62504;46.070;14.492;2022-12-18T16:34:32;3.00;99.90
64689;DHT22;62504;46.070;14.492;2022-12-18T16:37:00;2.90;99.90
64689;DHT22;62504;46.070;14.492;2022-12-18T16:39:27;2.90;99.90
64689;DHT22;62504;46.070;14.492;2022-12-18T16:41:53;2.90;99.90
64689;DHT22;62504;46.070;14.492;2022-12-18T16:44:18;3.00;99.90
64689;DHT22;62504;46.070;14.492;2022-12-18T16:46:44;3.10;99.90
64689;DHT22;62504;46.070;14.492;2022-12-18T16:49:15;3.00;99.90
64689;DHT22;62504;46.070;14.492;2022-12-18T16:51:41;3.00;99.90
64689;DHT22;62504;46.070;14.492;2022-12-18T16:54:07;3.00;99.90
64689;DHT22;62504;46.070;14.492;2022-12-18T16:56:33;2.90;99.90
64689;DHT22;62504;46.070;14.492;2022-12-18T16:58:59;2.90;99.90
64689;DHT22;62504;46.070;14.492;2022-12-18T17:01:27;2.90;99.90
64689;DHT22;62504;46.070;14.492;2022-12-18T17:04:00;2.80;99.90
64689;DHT22;62504;46.070;14.492;2022-12-18T17:06:28;2.90;99.90
64689;DHT22;62504;46.070;14.492;2022-12-18T17:08:56;2.90;99.90
64689;DHT22;62504;46.070;14.492;2022-12-18T17:11:23;2.90;99.90
64689;DHT22;62504;46.070;14.492;2022-12-18T17:13:49;2.70;99.90
64689;DHT22;62504;46.070;14.492;2022-12-18T17:16:15;2.80;99.90
64689;DHT22;62504;46.070;14.492;2022-12-18T17:18:42;2.90;99.90
64689;DHT22;62504;46.070;14.492;2022-12-18T17:21:09;2.90;99.90
64689;DHT22;62504;46.070;14.492;2022-12-18T17:23:35;2.70;99.90
64689;DHT22;62504;46.070;14.492;2022-12-18T17:26:02;2.80;99.90
64689;DHT22;62504;46.070;14.492;2022-12-18T17:28:29;3.10;99.90
64689;DHT22;62504;46.070;14.492;2022-12-18T17:30:56;3.20;99.90
64689;DHT22;62504;46.070;14.492;2022-12-18T17:33:23;3.10;99.90
64689;DHT22;62504;46.070;14.492;2022-12-18T17:35:49;3.00;99.90
64689;DHT22;62504;46.070;14.492;2022-12-18T17:38:15;3.10;99.90
64689;DHT22;62504;46.070;14.492;2022-12-18T17:40:41;3.10;99.90
64689;DHT22;62504;46.070;14.492;2022-12-18T17:43:08;3.00;99.90
64689;DHT22;62504;46.070;14.492;2022-12-18T17:45:38;3.00;99.90
64689;DHT22;62504;46.070;14.492;2022-12-18T17:48:05;3.00;99.90
64689;DHT22;62504;46.070;14.492;2022-12-18T17:50:34;3.00;99.90
64689;DHT22;62504;46.070;14.492;2022-12-18T17:53:00;3.10;99.90
64689;DHT22;62504;46.070;14.492;2022-12-18T17:55:27;3.00;99.90
64689;DHT22;62504;46.070;14.492;2022-12-18T17:57:53;3.20;99.90
64689;DHT22;62504;46.070;14.492;2022-12-18T18:00:19;3.30;99.90
64689;DHT22;62504;46.070;14.492;2022-12-18T18:02:45;3.30;99.90
64689;DHT22;62504;46.070;14.492;2022-12-18T18:05:11;3.30;99.90
64689;DHT22;62504;46.070;14.492;2022-12-18T18:07:37;3.10;99.90